Time;durP1;ratioP1;P1;durP2;ratioP2;P2;SDS_P1;SDS_P2;PMS_P1;PMS_P2;Temp;Humidity;BMP_temperature;BMP_pressure;BME280_temperature;BME280_humidity;BME280_pressure;Samples;Min_cycle;Max_cycle;Signal;HPM_P1;HPM_P2
2023/06/09 00:02:04;;;;;;;21.67;9.18;;;12.10;99.90;;;;;;5084162;28;20904;-88
2023/06/09 00:04:32;;;;;;;20.23;9.20;;;11.90;99.90;;;;;;5084283;28;20420;-88
2023/06/09 00:06:59;;;;;;;19.60;8.27;;;11.80;99.90;;;;;;5085148;28;20460;-87
2023/06/09 00:09:24;;;;;;;20.87;8.73;;;11.80;99.90;;;;;;5083915;28;20769;-88
2023/06/09 00:11:50;;;;;;;21.07;8.60;;;11.80;99.90;;;;;;5067923;28;20440;-87
2023/06/09 00:14:16;;;;;;;23.75;9.60;;;11.80;99.90;;;;;;5083429;28;20402;-87
2023/06/09 00:16:48;;;;;;;20.33;9.88;;;11.80;99.90;;;;;;5085038;28;20433;-87
2023/06/09 00:19:16;;;;;;;21.00;9.07;;;11.80;99.90;;;;;;5067130;28;20449;-87
2023/06/09 00:21:46;;;;;;;22.20;9.77;;;11.80;99.90;;;;;;5084266;28;20394;-88
2023/06/09 00:24:12;;;;;;;19.50;9.32;;;11.80;99.90;;;;;;5084813;28;20395;-88
2023/06/09 00:26:38;;;;;;;21.90;9.50;;;11.80;99.90;;;;;;5086118;28;20427;-89
2023/06/09 00:29:03;;;;;;;20.27;10.00;;;11.80;99.90;;;;;;5104959;28;20400;-87
2023/06/09 00:31:29;;;;;;;21.98;9.75;;;12.10;99.90;;;;;;5104104;28;20402;-88
2023/06/09 00:33:56;;;;;;;23.23;10.43;;;11.70;99.90;;;;;;5104754;28;20404;-88
2023/06/09 00:36:22;;;;;;;24.63;11.00;;;11.80;99.90;;;;;;5087356;28;20444;-89
2023/06/09 00:38:47;;;;;;;22.67;10.17;;;11.70;99.90;;;;;;5122748;27;20443;-88
2023/06/09 00:41:13;;;;;;;22.80;10.27;;;11.70;99.90;;;;;;5074506;28;20428;-86
2023/06/09 00:43:40;;;;;;;22.40;10.17;;;11.70;99.90;;;;;;5090979;28;20404;-88
2023/06/09 00:46:06;;;;;;;25.80;10.20;;;11.70;99.90;;;;;;5092011;28;20477;-88
2023/06/09 00:48:32;;;;;;;21.30;9.90;;;11.70;99.90;;;;;;5073986;28;20869;-88
2023/06/09 00:50:59;;;;;;;24.67;10.60;;;11.70;99.90;;;;;;5091657;28;20527;-87
2023/06/09 00:53:27;;;;;;;22.25;9.93;;;11.70;99.90;;;;;;5090985;28;20574;-89
2023/06/09 00:55:53;;;;;;;22.10;10.25;;;11.70;99.90;;;;;;5074786;28;20771;-88
2023/06/09 00:58:20;;;;;;;20.87;9.43;;;11.70;99.90;;;;;;5108016;28;20423;-89
2023/06/09 01:00:46;;;;;;;22.83;10.20;;;11.80;99.90;;;;;;5073980;28;20424;-88
2023/06/09 01:03:12;;;;;;;20.80;9.20;;;12.00;99.90;;;;;;5108453;28;20796;-89
2023/06/09 01:05:38;;;;;;;22.90;9.10;;;11.70;99.90;;;;;;5090588;28;20397;-88
2023/06/09 01:08:34;;;;;;;21.58;9.07;;;12.10;99.90;;;;;;5074712;28;20432;-88
2023/06/09 01:10:59;;;;;;;19.40;9.18;;;11.70;99.90;;;;;;5089312;28;20416;-89
2023/06/09 01:13:45;;;;;;;21.10;9.27;;;11.70;99.90;;;;;;5074366;28;20415;-88
2023/06/09 01:16:26;;;;;;;23.10;9.40;;;11.80;99.90;;;;;;5074342;28;20400;-88
2023/06/09 01:18:52;;;;;;;23.20;9.57;;;11.80;99.90;;;;;;5073193;28;20439;-88
2023/06/09 01:21:42;;;;;;;18.92;8.73;;;11.90;99.90;;;;;;5074047;28;20767;-90
2023/06/09 01:24:35;;;;;;;19.38;8.50;;;12.10;99.90;;;;;;5073681;28;20415;-87
2023/06/09 01:27:02;;;;;;;21.25;8.18;;;12.00;99.90;;;;;;5072781;28;20782;-89
2023/06/09 01:29:32;;;;;;;20.95;8.77;;;12.10;99.90;;;;;;5074524;28;20453;-87
2023/06/09 01:31:59;;;;;;;19.17;8.48;;;12.00;99.90;;;;;;5090249;28;20392;-88
2023/06/09 01:34:25;;;;;;;19.08;8.07;;;12.20;99.90;;;;;;5090851;28;20844;-89
2023/06/09 01:36:51;;;;;;;19.35;8.63;;;12.10;99.90;;;;;;5073379;28;20483;-88
2023/06/09 01:39:18;;;;;;;20.92;7.80;;;12.10;99.90;;;;;;5090460;28;20519;-88
2023/06/09 01:41:44;;;;;;;20.17;8.32;;;12.10;99.90;;;;;;5090328;28;20404;-87
2023/06/09 01:44:10;;;;;;;17.27;8.43;;;12.00;99.90;;;;;;5072664;28;20439;-88
2023/06/09 01:46:36;;;;;;;22.87;9.53;;;12.10;99.90;;;;;;5090323;28;20436;-88
2023/06/09 01:49:13;;;;;;;20.48;8.80;;;12.00;99.90;;;;;;5072548;28;20430;-88
2023/06/09 01:51:58;;;;;;;18.05;8.40;;;12.00;99.90;;;;;;5072998;28;20409;-90
2023/06/09 01:54:31;;;;;;;19.63;9.05;;;12.00;99.90;;;;;;5089906;28;20444;-90
2023/06/09 01:57:13;;;;;;;21.90;8.68;;;12.00;99.90;;;;;;5073205;28;20852;-88
2023/06/09 01:59:50;;;;;;;18.13;9.00;;;12.00;99.90;;;;;;5088019;28;20436;-88
2023/06/09 02:02:19;;;;;;;20.48;9.13;;;12.00;99.90;;;;;;5089486;28;20409;-90
2023/06/09 02:04:47;;;;;;;18.95;9.13;;;12.00;99.90;;;;;;5090015;28;20461;-88
2023/06/09 02:07:16;;;;;;;18.03;8.57;;;11.90;99.90;;;;;;5089334;28;20400;-87
2023/06/09 02:09:44;;;;;;;19.40;9.52;;;12.00;99.90;;;;;;5089417;28;20442;-87
2023/06/09 02:12:10;;;;;;;21.30;9.30;;;12.00;99.90;;;;;;5089845;28;20408;-88
2023/06/09 02:14:36;;;;;;;20.25;9.25;;;12.00;99.90;;;;;;5089229;28;20416;-88
2023/06/09 02:17:02;;;;;;;21.77;10.10;;;12.20;99.90;;;;;;5090008;28;20413;-87
2023/06/09 02:19:30;;;;;;;21.55;9.38;;;12.20;99.90;;;;;;5106043;28;20946;-88
2023/06/09 02:21:57;;;;;;;20.48;10.38;;;11.90;99.90;;;;;;5089738;28;20429;-88
2023/06/09 02:24:28;;;;;;;21.25;9.68;;;11.90;99.90;;;;;;5089601;28;20748;-88
2023/06/09 02:26:54;;;;;;;21.73;10.00;;;11.90;99.90;;;;;;5072296;28;20404;-88
2023/06/09 02:29:22;;;;;;;20.98;10.60;;;11.90;99.90;;;;;;5089573;28;20396;-88
2023/06/09 02:31:48;;;;;;;19.63;10.43;;;11.90;99.90;;;;;;5089426;28;20407;-88
2023/06/09 02:34:13;;;;;;;22.53;11.23;;;11.90;99.90;;;;;;5072908;28;20413;-89
2023/06/09 02:36:42;;;;;;;24.40;10.88;;;11.90;99.90;;;;;;5105916;28;20829;-88
2023/06/09 02:39:10;;;;;;;20.52;8.90;;;11.90;99.90;;;;;;5106545;28;20393;-89
2023/06/09 02:41:36;;;;;;;23.75;10.95;;;11.90;99.90;;;;;;5122615;27;20408;-89
2023/06/09 02:44:02;;;;;;;22.10;11.02;;;11.80;99.90;;;;;;5089213;28;20767;-88
2023/06/09 02:46:29;;;;;;;22.83;10.77;;;11.80;99.90;;;;;;5088917;28;20408;-87
2023/06/09 02:48:55;;;;;;;24.58;10.80;;;11.80;99.90;;;;;;5088624;28;20412;-88
2023/06/09 02:51:21;;;;;;;21.50;11.53;;;11.80;99.90;;;;;;5089000;28;20453;-88
2023/06/09 02:53:46;;;;;;;23.53;11.97;;;11.80;99.90;;;;;;5105107;28;20408;-88
2023/06/09 02:56:12;;;;;;;22.57;11.20;;;11.80;99.90;;;;;;5072532;28;20400;-87
2023/06/09 02:58:37;;;;;;;23.33;11.57;;;11.80;99.90;;;;;;5088111;28;20926;-88
2023/06/09 03:01:03;;;;;;;24.52;11.75;;;11.80;99.90;;;;;;5088674;28;20522;-88
2023/06/09 03:03:29;;;;;;;27.73;12.53;;;11.70;99.90;;;;;;5088236;28;20868;-88
2023/06/09 03:05:55;;;;;;;27.92;13.55;;;11.70;99.90;;;;;;5088046;28;20457;-88
2023/06/09 03:08:20;;;;;;;26.60;13.02;;;11.70;99.90;;;;;;5105875;28;20444;-88
2023/06/09 03:10:46;;;;;;;28.23;14.07;;;11.70;99.90;;;;;;5088299;28;20452;-87
2023/06/09 03:13:11;;;;;;;26.77;14.23;;;11.70;99.90;;;;;;5105732;28;20500;-88
2023/06/09 03:15:40;;;;;;;28.70;13.65;;;11.70;99.90;;;;;;5087817;28;20396;-89
2023/06/09 03:18:07;;;;;;;33.50;15.98;;;11.70;99.90;;;;;;5105562;28;20415;-87
2023/06/09 03:20:36;;;;;;;27.13;15.20;;;11.70;99.90;;;;;;5087908;28;20470;-88
2023/06/09 03:23:02;;;;;;;26.02;15.05;;;11.70;99.90;;;;;;5088540;28;20745;-87
2023/06/09 03:25:30;;;;;;;25.33;14.68;;;11.70;99.90;;;;;;5071385;28;20428;-88
2023/06/09 03:27:56;;;;;;;28.50;15.30;;;11.70;99.90;;;;;;5087808;28;20408;-88
2023/06/09 03:30:24;;;;;;;28.33;14.38;;;11.70;99.90;;;;;;5071361;28;21574;-87
2023/06/09 03:32:50;;;;;;;28.67;14.82;;;11.70;99.90;;;;;;5104153;28;20504;-88
2023/06/09 03:35:16;;;;;;;28.55;14.70;;;11.70;99.90;;;;;;5072044;28;20412;-88
2023/06/09 03:37:42;;;;;;;32.08;15.00;;;11.80;99.90;;;;;;5070871;28;20983;-88
2023/06/09 03:40:08;;;;;;;26.37;13.40;;;11.80;99.90;;;;;;5088221;28;20485;-89
2023/06/09 03:42:33;;;;;;;32.53;14.75;;;11.80;99.90;;;;;;5071197;28;20447;-88
2023/06/09 03:44:59;;;;;;;28.13;13.83;;;12.20;99.90;;;;;;5122501;27;20930;-90
2023/06/09 03:47:28;;;;;;;31.80;14.30;;;12.20;99.90;;;;;;5105736;28;20753;-88
2023/06/09 03:49:54;;;;;;;28.10;13.47;;;11.90;99.90;;;;;;5071348;28;20932;-89
2023/06/09 03:52:21;;;;;;;23.70;12.77;;;11.90;99.90;;;;;;5105783;28;20400;-89
2023/06/09 03:54:47;;;;;;;29.38;13.20;;;12.20;99.90;;;;;;5087627;28;20415;-88
2023/06/09 03:57:13;;;;;;;28.00;13.45;;;11.90;99.90;;;;;;5088494;28;20397;-89
2023/06/09 03:59:39;;;;;;;28.93;13.10;;;11.90;99.90;;;;;;5070700;28;20477;-87
2023/06/09 04:02:04;;;;;;;28.75;12.85;;;12.00;99.90;;;;;;5088001;28;20396;-90
2023/06/09 04:04:30;;;;;;;29.42;13.40;;;12.10;99.90;;;;;;5088407;28;20529;-89
2023/06/09 04:06:56;;;;;;;27.23;12.73;;;12.30;99.90;;;;;;5104676;28;20401;-89
2023/06/09 04:09:23;;;;;;;25.75;12.88;;;12.10;99.90;;;;;;5088609;28;20404;-88
2023/06/09 04:11:49;;;;;;;25.45;13.02;;;12.20;99.90;;;;;;5070937;28;20404;-90
2023/06/09 04:14:15;;;;;;;26.77;13.07;;;12.20;99.90;;;;;;5107279;28;20550;-88
2023/06/09 04:16:41;;;;;;;25.70;13.18;;;12.20;99.90;;;;;;5074808;28;20462;-89
2023/06/09 04:19:08;;;;;;;28.42;13.60;;;12.30;99.90;;;;;;5126287;27;20412;-88
2023/06/09 04:21:35;;;;;;;25.88;13.50;;;12.70;99.90;;;;;;5074984;28;20745;-89
2023/06/09 04:24:01;;;;;;;29.00;13.82;;;12.40;99.90;;;;;;5092241;28;20439;-88
2023/06/09 04:26:27;;;;;;;26.40;13.00;;;12.50;99.90;;;;;;5091583;28;20436;-88
2023/06/09 04:28:53;;;;;;;24.55;12.85;;;12.60;99.90;;;;;;5091842;28;20491;-89
2023/06/09 04:31:23;;;;;;;23.00;12.27;;;12.70;99.90;;;;;;5126630;27;20479;-89
2023/06/09 04:33:51;;;;;;;23.73;12.93;;;13.10;99.90;;;;;;5074373;28;20415;-90
2023/06/09 04:36:17;;;;;;;25.77;12.65;;;12.80;99.90;;;;;;5075356;28;20795;-89
2023/06/09 04:38:45;;;;;;;23.38;12.98;;;12.90;99.90;;;;;;5091820;28;20420;-89
2023/06/09 04:41:11;;;;;;;26.03;12.93;;;13.00;99.90;;;;;;5074581;28;20979;-89
2023/06/09 04:43:39;;;;;;;22.85;12.90;;;13.00;99.90;;;;;;5075379;28;20416;-88
2023/06/09 04:46:08;;;;;;;24.20;13.98;;;13.20;99.90;;;;;;5074554;28;20427;-88
2023/06/09 04:48:34;;;;;;;25.15;13.63;;;13.30;99.90;;;;;;5109728;28;20759;-90
2023/06/09 04:51:03;;;;;;;24.80;13.18;;;13.30;99.90;;;;;;5125480;27;20932;-88
2023/06/09 04:53:29;;;;;;;25.45;14.15;;;13.40;99.90;;;;;;5091859;28;20408;-89
2023/06/09 04:55:55;;;;;;;21.47;12.87;;;13.50;99.90;;;;;;5091652;28;20396;-89
2023/06/09 04:58:21;;;;;;;25.08;13.35;;;13.80;99.90;;;;;;5126061;27;20433;-89
2023/06/09 05:00:47;;;;;;;24.37;13.20;;;13.70;99.90;;;;;;5091178;28;20420;-87
2023/06/09 05:03:17;;;;;;;23.27;12.97;;;13.80;99.90;;;;;;5073933;28;20430;-89
2023/06/09 05:05:43;;;;;;;25.10;12.55;;;13.90;99.90;;;;;;5125624;27;20409;-89
2023/06/09 05:08:09;;;;;;;25.83;12.70;;;14.00;99.90;;;;;;5073937;28;20391;-89
2023/06/09 05:10:35;;;;;;;21.88;11.90;;;14.10;99.90;;;;;;5108468;28;20416;-89
2023/06/09 05:13:00;;;;;;;22.63;12.68;;;14.60;99.90;;;;;;5108250;28;20423;-88
2023/06/09 05:15:27;;;;;;;20.27;12.00;;;14.30;99.90;;;;;;5108260;28;20421;-88
2023/06/09 05:17:53;;;;;;;23.13;11.38;;;14.40;99.90;;;;;;5074114;28;20408;-88
2023/06/09 05:20:18;;;;;;;20.37;10.97;;;14.50;99.90;;;;;;5107678;28;20424;-88
2023/06/09 05:22:44;;;;;;;19.02;10.73;;;14.70;99.90;;;;;;5091157;28;20412;-88
2023/06/09 05:25:13;;;;;;;17.88;9.82;;;14.80;99.90;;;;;;5106006;28;20409;-89
2023/06/09 05:27:38;;;;;;;18.48;9.63;;;14.90;99.90;;;;;;5091255;28;20483;-89
2023/06/09 05:30:05;;;;;;;17.92;9.25;;;15.00;99.90;;;;;;5073299;28;20811;-88
2023/06/09 05:32:31;;;;;;;19.73;9.23;;;15.10;99.90;;;;;;5073939;28;20434;-89
2023/06/09 05:34:56;;;;;;;19.38;8.18;;;15.20;99.90;;;;;;5073539;28;20436;-89
2023/06/09 05:37:22;;;;;;;16.55;7.78;;;15.20;99.90;;;;;;5091263;28;20440;-88
2023/06/09 05:39:47;;;;;;;15.23;7.63;;;15.30;99.90;;;;;;5073909;28;20424;-88
2023/06/09 05:42:14;;;;;;;14.20;7.03;;;15.40;99.90;;;;;;5124611;27;20783;-90
2023/06/09 05:44:39;;;;;;;17.07;7.87;;;15.50;99.90;;;;;;5090908;28;20408;-91
2023/06/09 05:47:05;;;;;;;15.95;6.90;;;15.60;99.90;;;;;;5073205;28;20875;-88
2023/06/09 05:49:31;;;;;;;16.73;7.55;;;15.60;99.90;;;;;;5074397;28;20393;-92
2023/06/09 05:51:56;;;;;;;16.47;7.10;;;16.20;99.90;;;;;;5073313;28;20392;-89
2023/06/09 05:54:22;;;;;;;16.95;7.07;;;15.80;99.90;;;;;;5090549;28;20957;-89
2023/06/09 05:56:51;;;;;;;15.60;6.97;;;15.90;99.90;;;;;;5090629;28;20423;-90
2023/06/09 05:59:20;;;;;;;16.63;7.07;;;16.00;99.90;;;;;;5090269;28;20401;-91
2023/06/09 06:01:50;;;;;;;14.60;7.07;;;16.20;99.90;;;;;;5090462;28;20409;-88
2023/06/09 06:04:17;;;;;;;16.30;7.90;;;16.20;99.90;;;;;;5073089;28;20405;-88
2023/06/09 06:06:43;;;;;;;16.35;7.03;;;16.30;99.90;;;;;;5091049;28;20404;-91
2023/06/09 06:09:09;;;;;;;17.15;7.60;;;16.30;99.90;;;;;;5089552;28;20404;-89
2023/06/09 06:11:34;;;;;;;15.40;7.83;;;16.60;99.90;;;;;;5090479;28;20409;-91
2023/06/09 06:14:00;;;;;;;17.30;7.55;;;16.50;99.90;;;;;;5073483;28;20535;-89
2023/06/09 06:16:26;;;;;;;18.23;7.70;;;16.60;99.90;;;;;;5073335;28;20500;-91
2023/06/09 06:18:51;;;;;;;19.27;7.53;;;17.00;99.90;;;;;;5090077;28;20392;-90
2023/06/09 06:21:18;;;;;;;16.83;7.68;;;16.80;99.90;;;;;;5072408;28;20473;-91
2023/06/09 06:23:44;;;;;;;16.83;7.75;;;17.30;99.90;;;;;;5090295;28;20400;-88
2023/06/09 06:26:10;;;;;;;17.75;7.53;;;17.00;99.90;;;;;;5089796;28;20412;-90
2023/06/09 06:28:35;;;;;;;17.25;7.45;;;17.10;99.90;;;;;;5073465;28;20420;-89
2023/06/09 06:31:02;;;;;;;14.97;7.27;;;17.20;99.90;;;;;;5106510;28;20419;-88
2023/06/09 06:33:29;;;;;;;15.90;7.25;;;17.30;99.90;;;;;;5089601;28;20416;-89
2023/06/09 06:35:56;;;;;;;15.50;7.53;;;17.40;99.90;;;;;;5072661;28;20937;-88
2023/06/09 06:38:22;;;;;;;14.83;6.80;;;17.50;99.90;;;;;;5072364;28;20400;-91
2023/06/09 06:40:48;;;;;;;17.27;7.47;;;17.50;99.90;;;;;;5090055;28;20416;-89
2023/06/09 06:43:14;;;;;;;16.40;7.17;;;17.70;99.90;;;;;;5089169;28;20431;-90
2023/06/09 06:45:40;;;;;;;16.92;7.30;;;17.90;99.90;;;;;;5090123;28;20416;-89
2023/06/09 06:48:05;;;;;;;15.90;7.65;;;17.90;99.90;;;;;;5089350;28;20888;-89
2023/06/09 06:50:32;;;;;;;16.98;7.57;;;18.00;99.90;;;;;;5106513;28;21134;-90
2023/06/09 06:52:58;;;;;;;17.30;7.15;;;18.30;99.90;;;;;;5072576;28;20446;-89
2023/06/09 06:55:24;;;;;;;16.10;6.88;;;18.50;99.90;;;;;;5089682;28;20812;-90
2023/06/09 06:57:50;;;;;;;14.75;6.50;;;18.40;99.90;;;;;;5072331;28;20890;-88
2023/06/09 07:00:16;;;;;;;14.68;6.38;;;18.70;99.90;;;;;;5088976;28;20431;-91
2023/06/09 07:02:46;;;;;;;14.02;6.90;;;18.60;99.90;;;;;;5106312;28;20408;-91
2023/06/09 07:05:12;;;;;;;14.40;6.57;;;18.60;99.90;;;;;;5071670;28;20776;-90
2023/06/09 07:07:38;;;;;;;14.30;7.03;;;18.60;99.90;;;;;;5072348;28;20487;-88
2023/06/09 07:10:04;;;;;;;16.67;7.38;;;19.00;99.90;;;;;;5105755;28;20974;-89
2023/06/09 07:12:33;;;;;;;17.83;6.70;;;18.70;99.90;;;;;;5089874;28;20454;-90
2023/06/09 07:14:59;;;;;;;16.13;7.33;;;18.90;99.90;;;;;;5072154;28;20412;-88
2023/06/09 07:17:25;;;;;;;14.30;7.40;;;19.00;99.90;;;;;;5071374;28;20404;-90
2023/06/09 07:19:50;;;;;;;13.67;6.40;;;19.10;99.90;;;;;;5089161;28;20424;-90
2023/06/09 07:22:16;;;;;;;14.98;7.20;;;19.20;99.90;;;;;;5071914;28;20929;-90
2023/06/09 07:24:42;;;;;;;15.63;6.88;;;19.20;99.90;;;;;;5089217;28;20403;-90
2023/06/09 07:27:10;;;;;;;15.27;6.88;;;19.40;99.90;;;;;;5088035;28;20544;-90
2023/06/09 07:29:36;;;;;;;13.20;6.47;;;19.50;99.90;;;;;;5072081;28;20503;-89
2023/06/09 07:32:02;;;;;;;13.43;6.87;;;20.00;99.90;;;;;;5071990;28;20601;-90
2023/06/09 07:34:29;;;;;;;16.17;6.73;;;19.80;99.90;;;;;;5088507;28;20518;-90
2023/06/09 07:36:55;;;;;;;18.48;6.93;;;19.90;99.90;;;;;;5072380;28;20922;-90
2023/06/09 07:39:21;;;;;;;14.85;6.38;;;20.00;99.90;;;;;;5088190;28;20408;-90
2023/06/09 07:41:46;;;;;;;12.83;6.53;;;20.00;99.90;;;;;;5072287;28;20414;-91
2023/06/09 07:44:12;;;;;;;16.50;6.35;;;20.10;99.90;;;;;;5105380;28;20396;-90
2023/06/09 07:46:38;;;;;;;15.67;6.80;;;20.30;99.90;;;;;;5089092;28;20399;-90
2023/06/09 07:49:03;;;;;;;14.70;6.35;;;20.40;99.90;;;;;;5087618;28;20407;-89
2023/06/09 07:51:29;;;;;;;15.23;6.40;;;20.70;99.90;;;;;;5071561;28;20408;-91
2023/06/09 07:53:55;;;;;;;13.07;6.60;;;20.50;99.90;;;;;;5088620;28;20491;-90
2023/06/09 07:56:24;;;;;;;15.70;6.82;;;20.50;99.90;;;;;;5088196;28;20705;-91
2023/06/09 07:58:50;;;;;;;13.80;6.33;;;20.70;99.90;;;;;;5072297;28;20388;-90
2023/06/09 08:01:15;;;;;;;14.40;6.40;;;20.90;99.90;;;;;;5104702;28;20524;-91
2023/06/09 08:03:41;;;;;;;15.73;7.20;;;21.00;99.90;;;;;;5088567;28;20396;-89
2023/06/09 08:06:08;;;;;;;16.92;6.38;;;20.80;99.90;;;;;;5054545;28;20407;-91
2023/06/09 08:08:34;;;;;;;14.40;6.43;;;21.10;99.90;;;;;;5088595;28;20448;-90
2023/06/09 08:11:00;;;;;;;13.32;6.30;;;21.20;99.90;;;;;;5071115;28;20427;-89
2023/06/09 08:13:26;;;;;;;14.67;6.10;;;21.60;99.90;;;;;;5104978;28;20745;-90
2023/06/09 08:15:52;;;;;;;12.55;5.93;;;21.20;99.90;;;;;;5071610;28;20404;-89
2023/06/09 08:18:17;;;;;;;15.70;6.77;;;21.70;99.90;;;;;;5070849;28;20420;-90
2023/06/09 08:20:43;;;;;;;15.20;6.47;;;21.40;99.90;;;;;;5071807;28;20425;-90
2023/06/09 08:23:09;;;;;;;12.32;6.28;;;21.50;99.90;;;;;;5087557;28;20896;-91
2023/06/09 08:25:35;;;;;;;11.15;6.22;;;21.60;99.90;;;;;;5071764;28;20404;-91
2023/06/09 08:28:01;;;;;;;13.02;6.40;;;21.80;99.90;;;;;;5087461;28;20787;-89
2023/06/09 08:30:27;;;;;;;12.63;5.85;;;22.10;99.90;;;;;;5088581;28;20465;-90
2023/06/09 08:32:53;;;;;;;12.40;6.03;;;22.10;99.90;;;;;;5105195;28;20404;-90
2023/06/09 08:35:18;;;;;;;11.98;5.93;;;22.10;99.90;;;;;;5087855;28;20732;-89
2023/06/09 08:37:44;;;;;;;12.30;5.72;;;22.20;99.90;;;;;;5071586;28;20532;-91
2023/06/09 08:40:10;;;;;;;12.83;6.27;;;22.20;99.30;;;;;;5070623;28;20432;-91
2023/06/09 08:42:38;;;;;;;14.73;6.00;;;22.30;99.90;;;;;;5071785;28;20858;-89
2023/06/09 08:45:05;;;;;;;10.77;5.50;;;22.40;99.90;;;;;;5071026;28;20407;-88
2023/06/09 08:47:32;;;;;;;12.70;5.80;;;22.60;99.90;;;;;;5071465;28;20400;-90
2023/06/09 08:49:59;;;;;;;11.73;5.45;;;22.60;99.90;;;;;;5071440;28;20831;-89
2023/06/09 08:52:25;;;;;;;11.93;5.85;;;22.80;99.90;;;;;;5071221;28;20405;-91
2023/06/09 08:54:52;;;;;;;10.20;5.53;;;23.20;99.90;;;;;;5071624;28;20846;-89
2023/06/09 08:57:18;;;;;;;12.70;5.80;;;23.10;99.90;;;;;;5087817;28;20435;-90
2023/06/09 08:59:47;;;;;;;10.60;5.20;;;23.30;99.90;;;;;;5072639;28;20459;-90
2023/06/09 09:02:13;;;;;;;10.52;5.25;;;23.40;98.20;;;;;;5074322;28;20804;-92
2023/06/09 09:04:39;;;;;;;10.05;5.20;;;23.80;95.90;;;;;;5092127;28;20449;-90
2023/06/09 09:07:06;;;;;;;11.00;5.30;;;23.80;96.60;;;;;;5091207;28;20396;-91
2023/06/09 09:09:32;;;;;;;11.73;5.57;;;23.80;95.50;;;;;;5074812;28;20415;-92
2023/06/09 09:11:59;;;;;;;11.33;5.40;;;23.80;94.20;;;;;;5074925;28;20762;-89
2023/06/09 09:14:24;;;;;;;11.13;5.25;;;23.80;94.70;;;;;;5073924;28;20407;-92
2023/06/09 09:16:50;;;;;;;12.10;5.37;;;23.80;95.20;;;;;;5074354;28;20396;-90
2023/06/09 09:19:27;;;;;;;10.32;5.63;;;23.90;93.10;;;;;;5090829;28;20923;-89
2023/06/09 09:21:55;;;;;;;10.60;4.93;;;24.00;95.40;;;;;;5091446;28;20388;-91
2023/06/09 09:24:21;;;;;;;12.05;5.80;;;24.20;92.50;;;;;;5074464;28;20404;-91
2023/06/09 09:26:46;;;;;;;10.37;5.13;;;24.40;92.60;;;;;;5090867;28;20400;-91
2023/06/09 09:29:12;;;;;;;9.55;5.28;;;24.50;94.40;;;;;;5091512;28;20401;-90
2023/06/09 09:31:41;;;;;;;10.68;5.20;;;24.60;91.40;;;;;;5073839;28;20734;-90
2023/06/09 09:34:14;;;;;;;12.03;5.60;;;25.30;92.00;;;;;;5074604;28;20408;-91
2023/06/09 09:36:45;;;;;;;10.43;5.43;;;25.00;87.60;;;;;;5124417;27;20410;-89
2023/06/09 09:39:11;;;;;;;8.55;4.78;;;25.10;88.80;;;;;;5074601;28;20601;-91
2023/06/09 09:41:36;;;;;;;11.13;5.45;;;25.40;87.20;;;;;;5073603;28;20428;-88
2023/06/09 09:44:02;;;;;;;10.43;5.43;;;25.40;87.30;;;;;;5073499;28;20424;-91
2023/06/09 09:46:39;;;;;;;9.35;5.50;;;25.60;79.60;;;;;;5073949;28;20419;-90
2023/06/09 09:49:07;;;;;;;8.77;5.27;;;25.60;74.00;;;;;;5069211;28;20431;-92
2023/06/09 09:51:35;;;;;;;11.68;5.78;;;25.80;71.40;;;;;;5091469;28;20470;-90
2023/06/09 09:54:01;;;;;;;11.20;5.68;;;26.00;73.40;;;;;;5089977;28;20419;-91
2023/06/09 09:56:28;;;;;;;8.20;5.10;;;26.20;71.40;;;;;;5074022;28;20801;-91
2023/06/09 09:58:53;;;;;;;9.23;4.95;;;26.20;71.80;;;;;;5073004;28;20441;-92
2023/06/09 10:01:24;;;;;;;10.10;5.13;;;26.40;72.70;;;;;;5090338;28;20420;-91
2023/06/09 10:03:53;;;;;;;9.98;5.30;;;26.50;68.00;;;;;;5089959;28;20722;-90
2023/06/09 10:06:22;;;;;;;11.40;5.20;;;26.60;66.00;;;;;;5073773;28;20388;-91
2023/06/09 10:08:48;;;;;;;11.15;5.00;;;26.70;68.00;;;;;;5073524;28;20392;-90
2023/06/09 10:11:15;;;;;;;10.45;5.32;;;27.10;64.20;;;;;;5071356;28;20858;-93
2023/06/09 10:13:41;;;;;;;9.43;5.72;;;27.20;62.40;;;;;;5073377;28;20396;-90
2023/06/09 10:16:10;;;;;;;9.52;5.47;;;27.50;58.30;;;;;;5072434;28;20419;-90
2023/06/09 10:18:40;;;;;;;11.00;5.32;;;27.70;56.50;;;;;;5073479;28;20825;-90
2023/06/09 10:21:06;;;;;;;10.27;5.35;;;27.90;58.40;;;;;;5090559;28;20432;-91
2023/06/09 10:23:33;;;;;;;9.53;5.47;;;28.10;57.60;;;;;;5089174;28;20944;-91
2023/06/09 10:26:01;;;;;;;9.43;5.20;;;28.30;55.60;;;;;;5090436;28;20416;-90
2023/06/09 10:28:26;;;;;;;9.43;5.13;;;28.50;55.20;;;;;;5072726;28;20420;-91
2023/06/09 10:30:53;;;;;;;8.60;5.00;;;28.60;54.40;;;;;;5090357;28;21031;-92
2023/06/09 10:33:29;;;;;;;9.27;5.32;;;28.90;56.50;;;;;;5089503;28;20449;-93
2023/06/09 10:35:59;;;;;;;8.10;4.90;;;29.30;51.40;;;;;;5072977;28;20521;-94
2023/06/09 10:38:29;;;;;;;9.87;5.10;;;29.60;49.80;;;;;;5089620;28;20424;-90
2023/06/09 10:41:19;;;;;;;9.45;5.30;;;29.70;50.60;;;;;;5089139;28;20423;-92
2023/06/09 10:43:50;;;;;;;9.13;5.05;;;30.00;50.20;;;;;;5077571;28;20538;-92
2023/06/09 10:46:16;;;;;;;7.45;4.25;;;30.20;49.00;;;;;;5072573;28;20608;-91
2023/06/09 10:48:49;;;;;;;8.80;5.00;;;30.50;48.60;;;;;;5072393;28;20400;-92
2023/06/09 10:51:38;;;;;;;6.45;4.55;;;30.80;45.40;;;;;;5072908;28;20412;-89
2023/06/09 10:54:10;;;;;;;8.70;4.85;;;30.90;45.80;;;;;;5106007;28;20462;-90
2023/06/09 10:56:46;;;;;;;8.38;4.40;;;31.10;46.50;;;;;;5073118;28;20408;-90
2023/06/09 10:59:28;;;;;;;6.28;4.70;;;31.40;48.00;;;;;;5072298;28;20476;-91
2023/06/09 11:02:02;;;;;;;7.25;4.70;;;31.60;43.40;;;;;;5089795;28;20415;-91
2023/06/09 11:07:09;;;;;;;9.00;4.53;;;32.20;43.60;;;;;;5089101;28;20914;-92
2023/06/09 11:09:36;;;;;;;9.90;4.50;;;32.30;43.10;;;;;;5073071;28;20479;-90
2023/06/09 11:12:02;;;;;;;7.72;5.10;;;32.50;43.20;;;;;;5072094;28;20483;-91
2023/06/09 11:14:46;;;;;;;7.47;4.95;;;32.40;41.00;;;;;;5106124;28;20406;-90
2023/06/09 11:17:25;;;;;;;8.40;4.78;;;32.30;41.40;;;;;;5089209;28;20408;-92
2023/06/09 11:19:52;;;;;;;7.63;4.90;;;32.40;40.70;;;;;;5088523;28;20443;-91
2023/06/09 11:22:18;;;;;;;6.53;4.50;;;32.60;40.20;;;;;;5072678;28;20408;-90
2023/06/09 11:24:51;;;;;;;7.90;4.20;;;32.80;40.30;;;;;;5121801;27;20400;-92
2023/06/09 11:27:22;;;;;;;6.78;4.90;;;32.80;41.00;;;;;;5071779;28;20443;-93
2023/06/09 11:30:08;;;;;;;9.53;4.77;;;32.90;40.00;;;;;;5071400;28;20412;-91
2023/06/09 11:32:49;;;;;;;7.47;4.05;;;33.00;39.80;;;;;;5088062;28;20434;-90
2023/06/09 11:35:27;;;;;;;7.90;4.33;;;33.30;41.80;;;;;;5072093;28;20413;-91
2023/06/09 11:38:16;;;;;;;8.18;4.45;;;33.70;40.80;;;;;;5071234;28;20419;-91
2023/06/09 11:40:52;;;;;;;7.43;4.80;;;33.70;39.50;;;;;;5105296;28;20428;-92
2023/06/09 11:43:19;;;;;;;6.97;4.28;;;33.80;39.60;;;;;;5088686;28;20850;-90
2023/06/09 11:45:46;;;;;;;6.30;4.43;;;34.10;39.40;;;;;;5088287;28;20493;-92
2023/06/09 11:48:12;;;;;;;6.18;4.10;;;34.20;38.70;;;;;;5088813;28;20403;-91
2023/06/09 11:50:43;;;;;;;6.38;4.63;;;34.30;38.60;;;;;;5088209;28;20408;-91
2023/06/09 11:53:14;;;;;;;7.75;4.75;;;34.20;36.90;;;;;;5071699;28;20805;-92
2023/06/09 11:55:39;;;;;;;7.75;4.65;;;34.30;37.20;;;;;;5071146;28;20500;-90
2023/06/09 11:58:08;;;;;;;6.73;3.87;;;34.20;36.20;;;;;;5088421;28;20447;-91
2023/06/09 12:00:38;;;;;;;6.63;4.10;;;34.40;38.40;;;;;;5071224;28;20432;-92
2023/06/09 12:03:05;;;;;;;7.13;4.33;;;34.50;36.40;;;;;;5070991;28;20404;-92
2023/06/09 12:05:31;;;;;;;5.93;4.07;;;34.60;37.20;;;;;;5088332;28;20404;-91
2023/06/09 12:07:57;;;;;;;7.73;4.47;;;34.80;37.40;;;;;;5087626;28;20400;-90
2023/06/09 12:10:28;;;;;;;6.88;4.30;;;34.70;35.60;;;;;;5071705;28;20426;-91
2023/06/09 12:12:56;;;;;;;6.75;3.70;;;34.60;37.60;;;;;;5071104;28;20487;-92
2023/06/09 12:15:24;;;;;;;7.30;3.87;;;34.60;39.90;;;;;;5088108;28;20432;-91
2023/06/09 12:17:52;;;;;;;7.60;4.00;;;34.90;42.50;;;;;;5122307;27;20686;-91
2023/06/09 12:20:30;;;;;;;9.02;4.03;;;35.10;40.90;;;;;;5087423;28;20431;-92
2023/06/09 12:23:13;;;;;;;8.23;4.10;;;35.10;41.20;;;;;;5088694;28;20426;-91
2023/06/09 12:25:41;;;;;;;8.07;4.25;;;35.10;41.00;;;;;;5070858;28;20416;-93
2023/06/09 12:28:12;;;;;;;8.55;4.28;;;35.20;40.80;;;;;;5088109;28;20420;-90
2023/06/09 12:30:47;;;;;;;8.93;4.20;;;35.30;41.00;;;;;;5087902;28;20413;-89
2023/06/09 12:33:24;;;;;;;9.53;4.30;;;35.20;41.80;;;;;;5071030;28;20411;-89
2023/06/09 12:35:52;;;;;;;7.17;4.27;;;35.10;42.70;;;;;;5074375;28;20392;-88
2023/06/09 12:38:26;;;;;;;8.77;4.60;;;35.20;41.40;;;;;;5074240;28;20389;-89
2023/06/09 12:40:58;;;;;;;7.65;3.80;;;35.10;41.70;;;;;;5074826;28;20424;-90
2023/06/09 12:43:25;;;;;;;9.05;4.50;;;35.10;42.10;;;;;;5091462;28;20495;-89